Adger, Alabama
Current Conditions -  °F | °C
As of 7:53 PM on Wednesday 26 Nov 2014 (Local Time) from KBHM Reporting Station
Light Rain Light Rain  
Wind Chill: 53°   Ceiling: 7000
Heat Index: 53°   Visibility: 10mi
Dew Point: 32°   Wind: 14mph
Humidity: 45%   Direction: 240°WSW
Pressure: 30.08"   Gusts: 24mph
Location:  33.44°N, 87.19°W
Report Text: KBHM 270153Z 24012G21KT 10SM -RA OVC070 12/00 A3008 RMK AO2 RAB50 SLP185 P0000 T01170000
Loading
Personal Weather Stations






























Interactive Weather Map New forecast layout! Learn more

10-Day Weather Forecast

Advertisements
Track Severe Weather on mobile